createdAt,value
2022-11-08T00:00:46.993Z,64.51
2022-11-08T00:03:16.027Z,64.18
2022-11-08T00:06:03.334Z,64.32
2022-11-08T00:08:50.623Z,64.12
2022-11-08T00:11:37.949Z,64.12
2022-11-08T00:14:06.772Z,64.34
2022-11-08T00:16:35.701Z,64.30
2022-11-08T00:19:04.537Z,64.11
2022-11-08T00:21:33.325Z,64.52
2022-11-08T00:24:02.223Z,64.49
2022-11-08T00:26:30.974Z,64.25
2022-11-08T00:29:00.005Z,64.53
2022-11-08T00:31:28.777Z,64.45
2022-11-08T00:33:57.552Z,64.69
2022-11-08T00:36:26.390Z,64.76
2022-11-08T00:38:55.197Z,64.79
2022-11-08T00:41:24.251Z,64.59
2022-11-08T00:43:53.062Z,64.30
2022-11-08T00:46:21.866Z,64.50
2022-11-08T00:48:50.698Z,64.53
2022-11-08T00:51:19.488Z,64.72
2022-11-08T00:53:48.299Z,64.56
2022-11-08T00:56:17.976Z,64.75
2022-11-08T00:58:46.796Z,64.53
2022-11-08T01:01:20.183Z,64.64
2022-11-08T01:03:50.350Z,64.73
2022-11-08T01:06:21.400Z,64.90
2022-11-08T01:08:50.873Z,64.60
2022-11-08T01:11:22.934Z,64.63
2022-11-08T01:13:52.675Z,64.67
2022-11-08T01:16:24.240Z,64.74
2022-11-08T01:18:55.148Z,64.58
2022-11-08T01:21:24.082Z,64.83
2022-11-08T01:23:54.796Z,64.30
2022-11-08T01:26:29.998Z,64.25
2022-11-08T01:28:59.376Z,64.07
2022-11-08T01:31:30.834Z,64.21
2022-11-08T01:34:00.551Z,63.88
2022-11-08T01:36:30.411Z,64.31
2022-11-08T01:38:59.290Z,63.72
2022-11-08T01:41:28.516Z,63.50
2022-11-08T01:43:59.585Z,63.40
2022-11-08T01:46:42.469Z,63.40
2022-11-08T01:49:39.002Z,62.84
2022-11-08T01:52:10.644Z,63.31
2022-11-08T01:55:06.875Z,62.72
2022-11-08T01:57:41.284Z,62.69
2022-11-08T02:00:16.861Z,62.95
2022-11-08T02:02:57.615Z,62.86
2022-11-08T02:05:29.259Z,62.79
2022-11-08T02:08:09.320Z,62.54
2022-11-08T02:10:41.273Z,62.96
2022-11-08T02:13:14.906Z,62.88
2022-11-08T02:15:44.789Z,63.07
2022-11-08T02:18:15.869Z,63.10
2022-11-08T02:21:01.565Z,63.14
2022-11-08T02:23:55.421Z,63.15
2022-11-08T02:26:28.758Z,62.89
2022-11-08T02:28:57.872Z,62.48
2022-11-08T02:31:26.561Z,61.97
2022-11-08T02:33:55.362Z,62.15
2022-11-08T02:36:25.750Z,61.85
2022-11-08T02:38:58.204Z,60.99
2022-11-08T02:41:27.095Z,61.07
2022-11-08T02:43:57.608Z,60.56
2022-11-08T02:46:26.389Z,60.61
2022-11-08T02:48:55.209Z,61.16
2022-11-08T02:51:23.908Z,60.41
2022-11-08T02:53:52.625Z,60.26
2022-11-08T02:56:21.370Z,60.47
2022-11-08T02:58:50.454Z,60.33
2022-11-08T03:01:20.560Z,61.16
2022-11-08T03:03:49.705Z,60.58
2022-11-08T03:06:18.608Z,60.57
2022-11-08T03:08:47.338Z,60.06
2022-11-08T03:11:16.239Z,58.54
2022-11-08T03:13:45.002Z,56.67
2022-11-08T03:16:13.760Z,57.18
2022-11-08T03:18:42.489Z,56.19
2022-11-08T03:21:11.329Z,54.74
2022-11-08T03:23:40.254Z,53.00
2022-11-08T03:26:08.968Z,51.51
2022-11-08T03:28:37.747Z,51.25
2022-11-08T03:31:06.613Z,50.90
2022-11-08T03:33:35.449Z,51.49
2022-11-08T03:36:04.488Z,50.60
2022-11-08T03:38:33.568Z,50.60
2022-11-08T03:41:02.313Z,51.08
2022-11-08T03:43:31.087Z,52.02
2022-11-08T03:45:59.944Z,52.49
2022-11-08T03:48:28.699Z,53.92
2022-11-08T03:50:57.461Z,54.50
2022-11-08T03:53:26.253Z,54.94
2022-11-08T03:55:54.986Z,55.57
2022-11-08T03:58:23.737Z,54.59
2022-11-08T04:00:53.679Z,53.41
2022-11-08T04:03:22.582Z,52.39
2022-11-08T04:05:51.340Z,53.52
2022-11-08T04:08:20.433Z,53.18
2022-11-08T04:10:49.298Z,53.84
2022-11-08T04:13:36.395Z,54.47
2022-11-08T04:16:05.502Z,54.54
2022-11-08T04:18:52.521Z,54.36
2022-11-08T04:21:22.861Z,55.20
2022-11-08T04:23:53.370Z,55.07
2022-11-08T04:26:22.786Z,54.56
2022-11-08T04:28:51.529Z,53.98
2022-11-08T04:31:21.092Z,54.51
2022-11-08T04:33:49.909Z,55.05
2022-11-08T04:36:18.943Z,55.06
2022-11-08T04:38:51.751Z,53.95
2022-11-08T04:41:26.010Z,53.97
2022-11-08T04:43:57.982Z,54.24
2022-11-08T04:46:29.044Z,54.32
2022-11-08T04:49:00.770Z,55.16
2022-11-08T04:51:34.310Z,55.58
2022-11-08T04:54:05.592Z,56.13
2022-11-08T04:56:34.457Z,56.97
2022-11-08T04:59:05.273Z,57.83
2022-11-08T05:01:37.964Z,57.80
2022-11-08T05:04:07.110Z,58.36
2022-11-08T05:06:35.845Z,58.81
2022-11-08T05:09:04.889Z,59.37
2022-11-08T05:11:33.739Z,59.61
2022-11-08T05:14:02.566Z,59.75
2022-11-08T05:16:32.992Z,59.82
2022-11-08T05:19:02.067Z,59.97
2022-11-08T05:21:49.477Z,60.42
2022-11-08T05:24:19.123Z,60.40
2022-11-08T05:26:49.449Z,60.97
2022-11-08T05:29:18.317Z,61.05
2022-11-08T05:31:47.050Z,60.94
2022-11-08T05:34:15.799Z,61.41
2022-11-08T05:36:44.632Z,60.95
2022-11-08T05:39:13.445Z,61.40
2022-11-08T05:41:42.250Z,61.14
2022-11-08T05:44:10.989Z,61.10
2022-11-08T05:46:39.705Z,61.91
2022-11-08T05:49:08.380Z,61.80
2022-11-08T05:51:37.222Z,61.56
2022-11-08T05:54:06.321Z,61.58
2022-11-08T05:56:35.100Z,61.34
2022-11-08T05:59:03.853Z,61.55
2022-11-08T06:01:33.469Z,61.37
2022-11-08T06:04:03.100Z,61.67
2022-11-08T06:06:31.910Z,61.65
2022-11-08T06:09:00.748Z,61.63
2022-11-08T06:11:29.723Z,62.01
2022-11-08T06:13:58.514Z,61.25
2022-11-08T06:16:27.301Z,61.16
2022-11-08T06:18:56.157Z,61.60
2022-11-08T06:21:26.894Z,61.56
2022-11-08T06:23:55.961Z,61.49
2022-11-08T06:26:25.055Z,62.41
2022-11-08T06:28:53.786Z,61.68
2022-11-08T06:31:22.493Z,62.45
2022-11-08T06:33:51.529Z,62.15
2022-11-08T06:36:22.075Z,62.38
2022-11-08T06:38:55.757Z,61.89
2022-11-08T06:41:32.842Z,62.25
2022-11-08T06:44:03.944Z,62.69
2022-11-08T06:46:32.681Z,62.57
2022-11-08T06:49:01.418Z,62.20
2022-11-08T06:51:30.577Z,62.81
2022-11-08T06:53:59.906Z,62.32
2022-11-08T06:56:28.589Z,61.91
2022-11-08T06:58:57.359Z,61.93
2022-11-08T07:01:27.099Z,61.84
2022-11-08T07:03:56.496Z,62.50
2022-11-08T07:06:25.287Z,62.22
2022-11-08T07:08:54.028Z,62.45
2022-11-08T07:11:22.789Z,62.33
2022-11-08T07:13:51.496Z,61.72
2022-11-08T07:16:20.241Z,62.22
2022-11-08T07:18:51.318Z,61.93
2022-11-08T07:21:20.219Z,61.55
2022-11-08T07:23:49.269Z,62.18
2022-11-08T07:26:18.559Z,61.68
2022-11-08T07:28:47.306Z,61.31
2022-11-08T07:31:16.239Z,61.78
2022-11-08T07:33:44.990Z,61.67
2022-11-08T07:36:13.852Z,61.53
2022-11-08T07:38:42.945Z,62.71
2022-11-08T07:41:12.049Z,62.68
2022-11-08T07:43:40.852Z,63.07
2022-11-08T07:46:17.525Z,59.39
2022-11-08T07:48:46.279Z,56.30
2022-11-08T07:51:15.109Z,54.26
2022-11-08T07:53:45.379Z,52.89
2022-11-08T07:56:14.142Z,53.39
2022-11-08T07:58:42.912Z,54.41
2022-11-08T08:01:12.807Z,53.57
2022-11-08T08:03:41.755Z,52.88
2022-11-08T08:06:10.587Z,53.03
2022-11-08T08:08:39.311Z,53.11
2022-11-08T08:11:08.121Z,52.37
2022-11-08T08:13:36.910Z,52.31
2022-11-08T08:16:05.921Z,51.06
2022-11-08T08:18:34.727Z,52.81
2022-11-08T08:21:03.622Z,53.44
2022-11-08T08:23:32.389Z,53.15
2022-11-08T08:26:03.823Z,53.06
2022-11-08T08:28:32.717Z,54.30
2022-11-08T08:31:01.542Z,53.53
2022-11-08T08:33:30.367Z,52.66
2022-11-08T08:36:01.577Z,52.11
2022-11-08T08:38:35.018Z,52.09
2022-11-08T08:41:04.919Z,52.13
2022-11-08T08:43:33.876Z,52.03
2022-11-08T08:46:04.737Z,52.06
2022-11-08T08:48:34.196Z,51.48
2022-11-08T08:51:03.059Z,51.66
2022-11-08T08:53:31.899Z,52.37
2022-11-08T08:56:02.886Z,53.54
2022-11-08T08:58:31.764Z,54.90
2022-11-08T09:03:52.507Z,56.23
2022-11-08T09:06:21.434Z,56.69
2022-11-08T09:08:50.301Z,57.24
2022-11-08T09:11:19.419Z,57.69
2022-11-08T09:13:48.244Z,57.55
2022-11-08T09:16:17.049Z,57.64
2022-11-08T09:18:45.918Z,57.60
2022-11-08T09:21:14.760Z,57.22
2022-11-08T09:23:43.559Z,57.45
2022-11-08T09:26:12.959Z,57.69
2022-11-08T09:28:41.753Z,57.65
2022-11-08T09:31:12.258Z,57.66
2022-11-08T09:33:42.427Z,58.07
2022-11-08T09:36:14.628Z,58.01
2022-11-08T09:38:43.586Z,57.98
2022-11-08T09:41:17.252Z,58.18
2022-11-08T09:44:08.732Z,58.10
2022-11-08T09:46:40.646Z,58.19
2022-11-08T09:49:17.217Z,58.34
2022-11-08T09:51:46.122Z,57.97
2022-11-08T09:54:27.633Z,58.32
2022-11-08T09:56:56.448Z,58.16
2022-11-08T09:59:45.092Z,58.22
2022-11-08T10:02:19.964Z,58.09
2022-11-08T10:04:57.901Z,58.09
2022-11-08T10:08:04.754Z,58.31
2022-11-08T10:10:57.703Z,58.46
2022-11-08T10:13:43.085Z,58.33
2022-11-08T10:16:29.541Z,58.10
2022-11-08T10:19:35.629Z,58.14
2022-11-08T10:22:37.199Z,58.44
2022-11-08T10:25:20.167Z,58.28
2022-11-08T10:27:52.003Z,58.18
2022-11-08T10:30:24.008Z,58.11
2022-11-08T10:32:57.142Z,58.65
2022-11-08T10:36:12.337Z,58.91
2022-11-08T10:38:44.956Z,58.73
2022-11-08T10:41:42.654Z,58.79
2022-11-08T10:44:17.957Z,58.77
2022-11-08T10:47:08.477Z,58.87
2022-11-08T10:49:43.076Z,59.00
2022-11-08T10:52:39.017Z,59.13
2022-11-08T10:55:27.988Z,59.28
2022-11-08T10:57:56.914Z,59.18
2022-11-08T11:00:30.191Z,59.28
2022-11-08T11:03:12.091Z,59.15
2022-11-08T11:05:59.429Z,59.29
2022-11-08T11:08:29.619Z,59.10
2022-11-08T11:11:23.396Z,59.31
2022-11-08T11:14:19.476Z,59.43
2022-11-08T11:17:17.011Z,59.37
2022-11-08T11:19:57.108Z,59.52
2022-11-08T11:22:36.311Z,59.68
2022-11-08T11:25:15.000Z,59.65
2022-11-08T11:27:44.642Z,60.00
2022-11-08T11:30:19.213Z,59.93
2022-11-08T11:33:24.019Z,60.11
2022-11-08T11:35:58.562Z,59.94
2022-11-08T11:38:45.999Z,59.78
2022-11-08T11:41:20.398Z,59.87
2022-11-08T11:43:55.013Z,59.86
2022-11-08T11:46:51.748Z,60.10
2022-11-08T11:49:22.320Z,59.93
2022-11-08T11:51:57.298Z,59.94
2022-11-08T11:54:31.209Z,59.80
2022-11-08T11:57:05.956Z,59.71
2022-11-08T11:59:34.756Z,59.54
2022-11-08T12:02:29.074Z,59.60
2022-11-08T12:05:13.757Z,59.59
2022-11-08T12:08:22.212Z,59.55
2022-11-08T12:11:01.426Z,59.57
2022-11-08T12:13:54.097Z,59.89
2022-11-08T12:16:48.104Z,59.54
2022-11-08T12:19:49.217Z,59.85
2022-11-08T12:22:33.355Z,59.61
2022-11-08T12:25:06.525Z,59.85
2022-11-08T12:27:56.482Z,59.72
2022-11-08T12:30:37.659Z,59.99
2022-11-08T12:33:27.765Z,59.53
2022-11-08T12:35:59.818Z,59.54
2022-11-08T12:39:10.649Z,59.73
2022-11-08T12:41:45.878Z,59.55
2022-11-08T12:44:26.599Z,59.61
2022-11-08T12:47:21.928Z,59.70
2022-11-08T12:49:56.817Z,59.71
2022-11-08T12:52:37.532Z,59.73
2022-11-08T12:55:14.519Z,59.76
2022-11-08T12:57:43.637Z,59.47
2022-11-08T13:00:19.907Z,59.28
2022-11-08T13:03:21.149Z,59.48
2022-11-08T13:06:22.546Z,59.43
2022-11-08T13:09:02.551Z,59.44
2022-11-08T13:12:04.400Z,59.40
2022-11-08T13:14:40.987Z,59.74
2022-11-08T13:17:15.972Z,59.68
2022-11-08T13:19:47.508Z,59.58
2022-11-08T13:22:34.134Z,59.97
2022-11-08T13:25:03.655Z,59.79
2022-11-08T13:27:43.509Z,59.62
2022-11-08T13:30:12.289Z,59.59
2022-11-08T13:32:44.208Z,59.56
2022-11-08T13:35:33.256Z,59.71
2022-11-08T13:38:04.802Z,59.87
2022-11-08T13:40:43.061Z,59.90
2022-11-08T13:43:23.624Z,59.90
2022-11-08T13:45:53.126Z,59.83
2022-11-08T13:48:25.413Z,60.00
2022-11-08T13:50:54.536Z,60.01
2022-11-08T13:53:23.271Z,60.00
2022-11-08T13:55:57.888Z,60.09
2022-11-08T13:58:43.122Z,60.03
2022-11-08T14:01:20.051Z,60.10
2022-11-08T14:03:48.991Z,59.96
2022-11-08T14:06:29.722Z,60.05
2022-11-08T14:09:08.388Z,60.01
2022-11-08T14:12:01.844Z,59.95
2022-11-08T14:14:42.776Z,59.78
2022-11-08T14:17:29.783Z,60.43
2022-11-08T14:20:36.445Z,60.07
2022-11-08T14:23:21.541Z,60.03
2022-11-08T14:26:03.427Z,60.01
2022-11-08T14:28:37.957Z,59.92
2022-11-08T14:31:29.994Z,60.09
2022-11-08T14:34:00.391Z,59.92
2022-11-08T14:36:31.845Z,59.99
2022-11-08T14:39:14.729Z,60.12
2022-11-08T14:41:49.017Z,60.00
2022-11-08T14:44:21.208Z,60.37
2022-11-08T14:46:50.458Z,60.16
2022-11-08T14:49:24.402Z,60.21
2022-11-08T14:52:18.039Z,60.29
2022-11-08T14:54:49.265Z,60.17
2022-11-08T14:57:38.944Z,60.14
2022-11-08T15:00:15.092Z,60.15
2022-11-08T15:02:51.335Z,59.90
2022-11-08T15:05:34.566Z,60.29
2022-11-08T15:08:07.762Z,60.10
2022-11-08T15:10:36.494Z,60.14
2022-11-08T15:13:05.434Z,60.19
2022-11-08T15:15:35.085Z,60.37
2022-11-08T15:18:28.733Z,60.41
2022-11-08T15:21:01.023Z,60.10
2022-11-08T15:23:44.644Z,60.50
2022-11-08T15:26:19.591Z,60.14
2022-11-08T15:29:09.620Z,60.50
2022-11-08T15:31:43.908Z,60.16
2022-11-08T15:34:38.422Z,60.25
2022-11-08T15:37:39.590Z,60.21
2022-11-08T15:40:49.429Z,60.45
2022-11-08T15:43:44.409Z,60.24
2022-11-08T15:46:36.463Z,60.05
2022-11-08T15:49:26.617Z,60.19
2022-11-08T15:51:57.288Z,60.12
2022-11-08T15:54:27.598Z,60.13
2022-11-08T15:56:57.370Z,60.12
2022-11-08T15:59:30.585Z,60.35
2022-11-08T16:02:01.903Z,60.38
2022-11-08T16:04:31.478Z,60.43
2022-11-08T16:07:00.428Z,60.54
2022-11-08T16:09:29.316Z,60.72
2022-11-08T16:11:58.107Z,60.61
2022-11-08T16:14:26.910Z,60.51
2022-11-08T16:16:55.651Z,60.72
2022-11-08T16:19:25.839Z,60.84
2022-11-08T16:21:54.696Z,60.66
2022-11-08T16:24:23.436Z,60.99
2022-11-08T16:26:52.191Z,60.48
2022-11-08T16:29:24.278Z,60.56
2022-11-08T16:31:53.380Z,60.41
2022-11-08T16:34:22.506Z,60.53
2022-11-08T16:36:52.721Z,60.84
2022-11-08T16:39:26.802Z,61.06
2022-11-08T16:41:55.572Z,60.60
2022-11-08T16:44:24.301Z,60.93
2022-11-08T16:46:54.249Z,60.88
2022-11-08T16:49:25.668Z,60.87
2022-11-08T16:51:54.425Z,61.18
2022-11-08T16:54:28.930Z,60.99
2022-11-08T16:57:20.780Z,60.85
2022-11-08T16:59:46.616Z,61.15
2022-11-08T17:02:28.815Z,60.82
2022-11-08T17:04:57.784Z,61.14
2022-11-08T17:07:28.735Z,61.13
2022-11-08T17:09:57.509Z,60.90
2022-11-08T17:12:26.513Z,61.16
2022-11-08T17:14:56.764Z,61.51
2022-11-08T17:17:25.513Z,61.58
2022-11-08T17:19:55.364Z,61.53
2022-11-08T17:22:24.112Z,61.59
2022-11-08T17:24:52.904Z,61.67
2022-11-08T17:27:21.682Z,61.65
2022-11-08T17:29:50.431Z,61.55
2022-11-08T17:32:19.206Z,61.58
2022-11-08T17:34:47.898Z,61.93
2022-11-08T17:37:17.451Z,61.93
2022-11-08T17:39:46.182Z,61.71
2022-11-08T17:42:15.038Z,61.70
2022-11-08T17:44:43.818Z,61.86
2022-11-08T17:47:12.599Z,61.60
2022-11-08T17:49:44.054Z,61.67
2022-11-08T17:52:13.000Z,62.11
2022-11-08T17:54:41.916Z,61.82
2022-11-08T17:57:10.726Z,61.91
2022-11-08T17:59:39.821Z,62.23
2022-11-08T18:02:10.724Z,62.48
2022-11-08T18:04:40.075Z,62.08
2022-11-08T18:07:09.176Z,62.07
2022-11-08T18:09:39.570Z,62.21
2022-11-08T18:12:08.350Z,62.16
2022-11-08T18:14:37.100Z,62.07
2022-11-08T18:17:05.931Z,62.35
2022-11-08T18:19:34.827Z,62.18
2022-11-08T18:22:05.136Z,62.13
2022-11-08T18:24:34.029Z,61.92
2022-11-08T18:27:02.852Z,62.08
2022-11-08T18:29:32.367Z,62.24
2022-11-08T18:32:02.371Z,62.12
2022-11-08T18:34:31.923Z,62.30
2022-11-08T18:37:00.594Z,62.25
2022-11-08T18:39:30.211Z,62.20
2022-11-08T18:41:58.973Z,62.16
2022-11-08T18:44:27.715Z,62.08
2022-11-08T18:46:56.580Z,62.34
2022-11-08T18:49:25.310Z,62.36
2022-11-08T18:51:54.296Z,62.41
2022-11-08T18:54:23.015Z,62.44
2022-11-08T18:56:51.767Z,62.51
2022-11-08T18:59:20.521Z,62.43
2022-11-08T19:01:50.331Z,62.47
2022-11-08T19:04:19.212Z,62.57
2022-11-08T19:06:54.204Z,62.63
2022-11-08T19:09:23.835Z,62.44
2022-11-08T19:11:52.763Z,62.29
2022-11-08T19:14:21.706Z,62.41
2022-11-08T19:16:55.345Z,62.29
2022-11-08T19:19:25.040Z,62.25
2022-11-08T19:21:53.817Z,62.51
2022-11-08T19:24:22.714Z,62.48
2022-11-08T19:26:51.482Z,62.25
2022-11-08T19:29:21.262Z,62.28
2022-11-08T19:31:49.978Z,62.61
2022-11-08T19:34:18.837Z,62.76
2022-11-08T19:36:51.357Z,62.66
2022-11-08T19:39:25.029Z,62.71
2022-11-08T19:41:53.796Z,62.70
2022-11-08T19:44:22.564Z,62.68
2022-11-08T19:46:51.345Z,62.76
2022-11-08T19:49:25.833Z,62.82
2022-11-08T19:51:54.505Z,62.73
2022-11-08T19:54:23.261Z,62.64
2022-11-08T19:57:07.194Z,62.77
2022-11-08T19:59:36.364Z,63.12
2022-11-08T20:02:05.993Z,63.08
2022-11-08T20:04:34.903Z,63.22
2022-11-08T20:07:03.734Z,63.08
2022-11-08T20:09:36.097Z,63.24
2022-11-08T20:12:06.223Z,63.36
2022-11-08T20:14:35.018Z,63.23
2022-11-08T20:17:03.946Z,63.52
2022-11-08T20:19:32.865Z,63.30
2022-11-08T20:22:01.599Z,63.45
2022-11-08T20:24:30.437Z,63.55
2022-11-08T20:26:59.281Z,63.80
2022-11-08T20:29:28.182Z,63.57
2022-11-08T20:31:56.941Z,63.96
2022-11-08T20:34:25.939Z,64.00
2022-11-08T20:36:54.726Z,63.99
2022-11-08T20:39:23.507Z,64.06
2022-11-08T20:41:52.216Z,63.78
2022-11-08T20:44:21.018Z,64.11
2022-11-08T20:46:49.820Z,64.13
2022-11-08T20:49:18.607Z,64.08
2022-11-08T20:51:47.630Z,64.28
2022-11-08T20:54:17.209Z,63.89
2022-11-08T20:56:45.995Z,63.96
2022-11-08T20:59:15.506Z,64.30
2022-11-08T21:01:46.834Z,64.30
2022-11-08T21:04:15.834Z,64.29
2022-11-08T21:06:44.827Z,64.25
2022-11-08T21:09:37.163Z,64.53
2022-11-08T21:12:02.487Z,64.72
2022-11-08T21:14:31.342Z,64.33
2022-11-08T21:17:20.902Z,64.41
2022-11-08T21:19:51.411Z,64.44
2022-11-08T21:22:20.157Z,64.66
2022-11-08T21:24:49.330Z,64.71
2022-11-08T21:27:18.500Z,64.55
2022-11-08T21:29:47.234Z,64.71
2022-11-08T21:32:15.969Z,64.77
2022-11-08T21:34:46.659Z,65.08
2022-11-08T21:37:15.861Z,64.66
2022-11-08T21:39:44.591Z,65.04
2022-11-08T21:42:14.377Z,65.04
2022-11-08T21:44:43.162Z,65.00
2022-11-08T21:47:11.897Z,64.96
2022-11-08T21:49:40.577Z,64.72
2022-11-08T21:52:09.312Z,64.92
2022-11-08T21:54:38.110Z,65.03
2022-11-08T21:57:06.838Z,65.10
2022-11-08T21:59:35.705Z,65.20
2022-11-08T22:02:05.144Z,64.82
2022-11-08T22:04:34.063Z,65.04
2022-11-08T22:07:02.951Z,64.80
2022-11-08T22:09:31.658Z,65.08
2022-11-08T22:12:00.423Z,64.97
2022-11-08T22:14:29.069Z,65.03
2022-11-08T22:16:57.797Z,65.09
2022-11-08T22:19:26.451Z,65.11
2022-11-08T22:21:55.218Z,65.20
2022-11-08T22:24:23.949Z,64.90
2022-11-08T22:26:53.298Z,65.21
2022-11-08T22:29:22.086Z,65.29
2022-11-08T22:31:50.848Z,65.06
2022-11-08T22:34:19.932Z,65.12
2022-11-08T22:36:48.680Z,65.36
2022-11-08T22:39:19.584Z,65.22
2022-11-08T22:41:51.182Z,65.53
2022-11-08T22:44:20.469Z,65.35
2022-11-08T22:46:49.785Z,65.62
2022-11-08T22:49:18.398Z,65.53
2022-11-08T22:51:47.102Z,65.25
2022-11-08T22:54:15.947Z,65.78
2022-11-08T22:56:44.697Z,65.81
2022-11-08T22:59:13.678Z,65.83
2022-11-08T23:01:42.986Z,65.41
2022-11-08T23:04:11.971Z,65.82
2022-11-08T23:06:41.199Z,65.48
2022-11-08T23:09:10.442Z,65.64
2022-11-08T23:11:57.389Z,65.79
2022-11-08T23:14:44.746Z,65.56
2022-11-08T23:17:13.450Z,65.83
2022-11-08T23:20:00.799Z,65.92
2022-11-08T23:22:48.317Z,65.74
2022-11-08T23:25:16.995Z,65.48
2022-11-08T23:28:04.463Z,65.69
2022-11-08T23:30:51.788Z,65.68
2022-11-08T23:33:20.884Z,66.00
2022-11-08T23:36:13.103Z,65.92
2022-11-08T23:38:42.983Z,65.86
2022-11-08T23:41:30.487Z,65.89
2022-11-08T23:44:17.647Z,66.01
2022-11-08T23:46:46.352Z,65.70
2022-11-08T23:49:15.044Z,66.06
2022-11-08T23:51:44.023Z,65.79
2022-11-08T23:54:12.971Z,66.10
2022-11-08T23:56:42.346Z,66.12
2022-11-08T23:59:11.989Z,66.11
